Time;durP1;ratioP1;P1;durP2;ratioP2;P2;SDS_P1;SDS_P2;PMS_P1;PMS_P2;Temp;Humidity;BMP_temperature;BMP_pressure;BME280_temperature;BME280_humidity;BME280_pressure;Samples;Min_cycle;Max_cycle;Signal;HPM_P1;HPM_P2
2021/12/22 00:01:52;;;;;;;19.23;14.27;;;3.10;52.90;;;;;;5091152;28;20211;-55
2021/12/22 00:04:23;;;;;;;21.37;14.70;;;3.10;53.70;;;;;;5093725;28;20231;-55
2021/12/22 00:06:48;;;;;;;21.53;13.70;;;3.20;53.70;;;;;;5092799;28;20535;-54
2021/12/22 00:09:15;;;;;;;22.60;14.93;;;3.30;53.60;;;;;;5093437;28;20509;-54
2021/12/22 00:11:40;;;;;;;25.07;15.83;;;3.40;53.40;;;;;;5092628;28;20549;-54
2021/12/22 00:14:06;;;;;;;29.60;16.77;;;3.20;52.90;;;;;;5093249;28;20520;-51
2021/12/22 00:16:32;;;;;;;23.77;16.27;;;3.30;52.90;;;;;;5092344;28;20200;-51
2021/12/22 00:18:58;;;;;;;20.90;14.77;;;3.30;52.80;;;;;;5093186;28;20465;-51
2021/12/22 00:21:23;;;;;;;24.10;14.63;;;3.30;52.60;;;;;;5092662;28;20638;-51
2021/12/22 00:23:49;;;;;;;24.97;14.70;;;3.30;52.50;;;;;;5093208;28;20290;-52
2021/12/22 00:26:15;;;;;;;24.00;15.57;;;3.30;52.40;;;;;;5092316;28;20191;-52
2021/12/22 00:28:42;;;;;;;20.90;14.70;;;3.20;52.40;;;;;;5091226;28;20199;-52
2021/12/22 00:31:12;;;;;;;21.77;15.53;;;3.10;52.40;;;;;;5092258;28;20426;-52
2021/12/22 00:33:45;;;;;;;20.70;12.90;;;2.90;53.20;;;;;;5092890;28;20441;-52
2021/12/22 00:36:11;;;;;;;18.70;13.53;;;2.70;53.00;;;;;;5091742;28;20713;-55
2021/12/22 00:38:37;;;;;;;18.90;12.23;;;2.80;53.50;;;;;;5092869;28;20418;-52
2021/12/22 00:41:03;;;;;;;18.63;14.00;;;2.80;53.40;;;;;;5092424;28;20923;-53
2021/12/22 00:43:28;;;;;;;21.23;13.13;;;2.90;53.40;;;;;;5091200;28;20191;-55
2021/12/22 00:45:56;;;;;;;19.20;12.40;;;2.90;53.20;;;;;;5091660;28;20280;-54
2021/12/22 00:48:22;;;;;;;20.23;13.27;;;2.80;53.50;;;;;;5092443;28;20282;-54
2021/12/22 00:50:48;;;;;;;18.77;12.07;;;2.90;53.60;;;;;;5090992;28;20414;-52
2021/12/22 00:53:14;;;;;;;18.30;12.30;;;2.90;53.50;;;;;;5092409;28;20831;-52
2021/12/22 00:55:39;;;;;;;15.53;12.07;;;2.80;53.40;;;;;;5089821;28;20187;-55
2021/12/22 00:58:05;;;;;;;17.63;11.37;;;2.70;53.70;;;;;;5092676;28;20188;-52
2021/12/22 01:00:32;;;;;;;17.87;11.63;;;2.70;54.00;;;;;;5091882;28;20226;-55
2021/12/22 01:02:58;;;;;;;18.90;11.70;;;2.70;53.90;;;;;;5092265;28;20546;-52
2021/12/22 01:05:24;;;;;;;15.13;11.70;;;2.60;54.10;;;;;;5091524;28;20505;-55
2021/12/22 01:07:51;;;;;;;16.97;12.47;;;2.60;54.30;;;;;;5092336;28;20420;-55
2021/12/22 01:10:26;;;;;;;19.83;12.60;;;2.70;54.20;;;;;;5091476;28;20417;-54
2021/12/22 01:12:55;;;;;;;21.73;12.77;;;2.40;54.00;;;;;;5092031;28;20524;-55
2021/12/22 01:15:21;;;;;;;21.27;14.10;;;2.30;54.70;;;;;;5091119;28;20432;-55
2021/12/22 01:17:49;;;;;;;17.47;12.00;;;2.30;54.80;;;;;;5092091;28;20437;-52
2021/12/22 01:20:29;;;;;;;15.13;11.33;;;2.30;55.00;;;;;;5091347;28;20473;-53
2021/12/22 01:23:02;;;;;;;15.77;11.53;;;2.30;55.00;;;;;;5089871;28;20524;-53
2021/12/22 01:25:35;;;;;;;17.77;11.77;;;2.40;54.50;;;;;;5091069;28;20541;-54
2021/12/22 01:28:01;;;;;;;17.10;12.17;;;2.40;54.70;;;;;;5091638;28;20429;-54
2021/12/22 01:30:29;;;;;;;18.53;12.53;;;;;;;;;;5091442;28;20425;-54
2021/12/22 01:32:57;;;;;;;18.23;11.10;;;2.40;54.10;;;;;;5091807;28;20286;-52
2021/12/22 01:35:28;;;;;;;15.83;11.57;;;2.30;54.50;;;;;;5090625;28;20784;-54
2021/12/22 01:37:54;;;;;;;11.90;10.10;;;2.20;54.50;;;;;;5091969;28;20431;-51
2021/12/22 01:40:21;;;;;;;15.67;11.20;;;2.20;54.70;;;;;;5091169;28;20418;-55
2021/12/22 01:42:47;;;;;;;17.50;11.50;;;2.30;54.80;;;;;;5091553;28;20917;-54
2021/12/22 01:51:09;;;;;;;25.07;12.43;;;2.40;54.10;;;;;;5091189;28;20432;-52
2021/12/22 01:53:41;;;;;;;14.60;11.23;;;2.50;54.00;;;;;;5091514;28;20433;-52
2021/12/22 01:56:32;;;;;;;16.43;11.00;;;2.50;54.00;;;;;;5090240;28;20904;-51
2021/12/22 01:58:58;;;;;;;18.10;11.80;;;2.40;54.10;;;;;;5090043;28;20445;-54
2021/12/22 02:01:25;;;;;;;16.70;10.83;;;2.40;54.10;;;;;;5090535;28;20421;-51
2021/12/22 02:03:51;;;;;;;16.00;10.17;;;2.40;53.80;;;;;;5091179;28;20461;-54
2021/12/22 02:06:18;;;;;;;17.00;11.80;;;2.40;53.60;;;;;;5090293;28;20426;-53
2021/12/22 02:08:45;;;;;;;17.20;9.87;;;2.50;53.50;;;;;;5091254;28;20426;-54
2021/12/22 02:11:13;;;;;;;15.10;11.00;;;2.40;53.40;;;;;;5090769;28;20421;-51
2021/12/22 02:13:43;;;;;;;15.33;10.60;;;2.30;53.30;;;;;;5091483;28;20428;-51
2021/12/22 02:16:10;;;;;;;13.73;10.03;;;2.30;53.40;;;;;;5088905;28;20426;-51
2021/12/22 02:18:43;;;;;;;15.80;10.67;;;2.00;53.90;;;;;;5090802;28;21269;-55
2021/12/22 02:21:09;;;;;;;17.53;11.77;;;2.00;54.30;;;;;;5090763;28;20516;-54
2021/12/22 02:23:36;;;;;;;15.93;10.30;;;2.00;54.40;;;;;;5090897;28;20528;-54
2021/12/22 02:26:12;;;;;;;14.07;9.87;;;2.10;54.50;;;;;;5089838;28;20429;-55
2021/12/22 02:28:43;;;;;;;17.07;10.50;;;2.10;54.30;;;;;;5089681;28;20482;-55
2021/12/22 02:31:13;;;;;;;15.47;11.00;;;2.20;54.10;;;;;;5090221;28;20436;-54
2021/12/22 02:33:40;;;;;;;13.80;10.07;;;2.30;53.90;;;;;;5091060;28;20483;-54
2021/12/22 02:36:08;;;;;;;18.20;10.07;;;2.30;53.70;;;;;;5089856;28;20788;-54
2021/12/22 02:38:40;;;;;;;17.20;10.87;;;2.40;53.80;;;;;;5090990;28;20441;-55
2021/12/22 02:41:09;;;;;;;14.53;10.90;;;2.30;53.80;;;;;;5090410;28;20461;-54
2021/12/22 02:43:43;;;;;;;17.13;10.30;;;2.20;54.00;;;;;;5088972;28;20524;-54
2021/12/22 02:46:09;;;;;;;14.63;9.97;;;2.30;54.00;;;;;;5089869;28;20429;-53
2021/12/22 02:48:35;;;;;;;14.33;10.30;;;2.40;53.80;;;;;;5091007;28;20444;-52
2021/12/22 02:51:02;;;;;;;15.27;10.67;;;2.40;53.40;;;;;;5090468;28;20425;-52
2021/12/22 02:54:04;;;;;;;16.67;10.23;;;2.40;53.40;;;;;;5090585;28;20218;-54
2021/12/22 03:06:16;;;;;;;15.10;10.03;;;2.30;53.30;;;;;;5089945;28;20428;-55
2021/12/22 03:08:42;;;;;;;13.97;10.40;;;2.30;53.20;;;;;;5088839;28;20433;-54
2021/12/22 03:11:08;;;;;;;22.83;11.23;;;2.40;53.10;;;;;;5090454;28;20475;-52
2021/12/22 03:13:33;;;;;;;16.00;11.60;;;2.40;52.80;;;;;;5092648;28;20195;-51
2021/12/22 03:15:59;;;;;;;17.30;11.57;;;2.40;52.60;;;;;;5093505;28;20202;-54
2021/12/22 03:18:24;;;;;;;14.53;11.03;;;2.40;52.40;;;;;;5094047;28;20194;-53
2021/12/22 03:21:01;;;;;;;17.20;10.60;;;2.40;52.30;;;;;;5093965;28;20191;-55
2021/12/22 03:23:27;;;;;;;16.40;10.07;;;2.30;52.20;;;;;;5094262;28;20244;-53
2021/12/22 03:25:53;;;;;;;17.10;10.73;;;2.30;52.30;;;;;;5093019;28;20477;-52
2021/12/22 03:28:18;;;;;;;13.80;10.70;;;2.30;52.40;;;;;;5093882;28;20195;-54
2021/12/22 03:30:44;;;;;;;17.13;11.17;;;2.30;52.30;;;;;;5093539;28;20417;-51
2021/12/22 03:33:10;;;;;;;15.97;11.33;;;2.20;52.30;;;;;;5094152;28;20289;-52
2021/12/22 03:35:38;;;;;;;18.57;11.07;;;2.20;52.40;;;;;;5091276;28;20191;-54
2021/12/22 03:38:06;;;;;;;15.17;11.30;;;2.20;52.40;;;;;;5093964;28;20715;-52
2021/12/22 03:40:31;;;;;;;12.90;9.60;;;2.20;52.20;;;;;;5093428;28;20475;-53
2021/12/22 03:42:57;;;;;;;19.03;10.10;;;2.10;52.00;;;;;;5093814;28;20421;-52
2021/12/22 03:45:23;;;;;;;12.50;9.20;;;2.10;52.10;;;;;;5092867;28;20230;-54
2021/12/22 03:47:49;;;;;;;13.40;9.17;;;2.10;52.10;;;;;;5093597;28;20195;-52
2021/12/22 03:50:16;;;;;;;17.20;9.53;;;2.10;52.10;;;;;;5093385;28;20429;-54
2021/12/22 03:52:42;;;;;;;16.43;10.20;;;2.10;52.30;;;;;;5093748;28;20653;-52
2021/12/22 03:55:09;;;;;;;13.67;10.10;;;2.10;52.60;;;;;;5093051;28;20425;-54
2021/12/22 03:57:34;;;;;;;20.07;11.70;;;1.90;52.90;;;;;;5093723;28;20187;-51
2021/12/22 04:00:02;;;;;;;11.20;8.83;;;2.00;53.00;;;;;;5092867;28;20428;-55
2021/12/22 04:02:28;;;;;;;13.60;9.87;;;2.10;53.20;;;;;;5091785;28;20187;-51
2021/12/22 04:04:54;;;;;;;16.00;10.57;;;1.90;53.30;;;;;;5092499;28;20484;-52
2021/12/22 04:07:20;;;;;;;13.90;10.17;;;2.00;53.50;;;;;;5093204;28;20429;-54
2021/12/22 04:09:46;;;;;;;18.87;11.00;;;2.10;53.40;;;;;;5093143;28;20675;-54
2021/12/22 04:12:12;;;;;;;13.37;10.00;;;2.10;53.10;;;;;;5093439;28;20202;-53
2021/12/22 04:14:38;;;;;;;14.20;10.50;;;2.10;52.80;;;;;;5092968;28;20482;-55
2021/12/22 04:17:04;;;;;;;12.87;9.73;;;2.10;52.80;;;;;;5092808;28;20512;-54
2021/12/22 04:19:30;;;;;;;12.33;9.33;;;2.10;52.70;;;;;;5092967;28;20238;-54
2021/12/22 04:21:57;;;;;;;15.37;10.70;;;2.10;52.70;;;;;;5092609;28;20198;-52
2021/12/22 04:24:23;;;;;;;12.20;9.37;;;2.10;52.60;;;;;;5092453;28;20251;-52
2021/12/22 04:26:50;;;;;;;16.67;10.83;;;2.10;52.50;;;;;;5092198;28;20433;-53
2021/12/22 04:29:16;;;;;;;17.90;10.07;;;2.10;52.30;;;;;;5091386;28;20425;-51
2021/12/22 04:31:42;;;;;;;14.07;9.50;;;2.00;52.50;;;;;;5092329;28;20429;-52
2021/12/22 04:34:08;;;;;;;13.93;9.67;;;1.90;52.80;;;;;;5092643;28;20441;-51
2021/12/22 04:36:38;;;;;;;17.23;9.83;;;1.70;52.70;;;;;;5092410;28;20539;-52
2021/12/22 04:39:05;;;;;;;14.10;9.97;;;1.70;53.10;;;;;;5092724;28;20429;-52
2021/12/22 04:41:31;;;;;;;12.70;9.63;;;1.70;53.20;;;;;;5092343;28;20570;-52
2021/12/22 04:43:57;;;;;;;13.70;9.43;;;1.70;53.00;;;;;;5092153;28;20570;-54
2021/12/22 04:46:22;;;;;;;15.30;10.53;;;1.70;52.80;;;;;;5091788;28;20270;-50
2021/12/22 04:48:48;;;;;;;13.30;10.30;;;1.80;53.20;;;;;;5092452;28;20228;-52
2021/12/22 04:51:24;;;;;;;16.80;10.70;;;1.70;52.90;;;;;;5092061;28;20218;-52
2021/12/22 04:54:01;;;;;;;15.23;10.60;;;1.70;52.90;;;;;;5092409;28;20654;-51
2021/12/22 04:56:26;;;;;;;15.83;10.83;;;1.60;53.00;;;;;;5090222;28;20429;-52
2021/12/22 04:58:52;;;;;;;20.00;10.77;;;1.60;52.80;;;;;;5092414;28;20470;-55
2021/12/22 05:01:18;;;;;;;14.97;9.30;;;1.60;52.90;;;;;;5092019;28;20595;-51
2021/12/22 05:03:44;;;;;;;13.87;9.70;;;1.50;53.00;;;;;;5092040;28;20191;-51
2021/12/22 05:06:09;;;;;;;19.30;10.80;;;1.60;53.00;;;;;;5091424;28;20203;-51
2021/12/22 05:08:35;;;;;;;14.00;9.77;;;1.50;53.10;;;;;;5092360;28;20199;-51
2021/12/22 05:11:00;;;;;;;14.27;10.53;;;1.20;53.10;;;;;;5090200;28;20290;-52
2021/12/22 05:13:26;;;;;;;15.10;10.60;;;0.80;53.90;;;;;;5092118;28;20187;-51
2021/12/22 05:15:52;;;;;;;16.50;10.60;;;0.90;54.80;;;;;;5091037;28;20669;-51
2021/12/22 05:20:48;;;;;;;25.17;14.00;;;1.10;54.50;;;;;;5091634;28;20426;-51
2021/12/22 05:23:14;;;;;;;22.10;12.07;;;1.10;54.40;;;;;;5089935;28;20429;-52
2021/12/22 05:25:40;;;;;;;19.73;12.33;;;1.20;54.20;;;;;;5091006;28;20477;-51
2021/12/22 05:28:05;;;;;;;22.40;12.93;;;1.20;53.90;;;;;;5091850;28;20436;-52
2021/12/22 05:30:31;;;;;;;15.77;10.37;;;1.10;53.80;;;;;;5091415;28;20239;-51
2021/12/22 05:32:57;;;;;;;13.57;9.80;;;1.00;54.50;;;;;;5091582;28;20206;-52
2021/12/22 05:35:23;;;;;;;15.00;10.50;;;1.10;54.00;;;;;;5090151;28;20214;-52
2021/12/22 05:37:49;;;;;;;17.47;11.00;;;1.00;54.20;;;;;;5091751;28;20235;-52
2021/12/22 05:40:15;;;;;;;19.13;12.10;;;0.80;54.60;;;;;;5090892;28;20422;-51
2021/12/22 05:42:42;;;;;;;15.07;10.90;;;1.00;54.80;;;;;;5091819;28;20445;-52
2021/12/22 05:45:08;;;;;;;14.10;10.20;;;1.20;54.60;;;;;;5090582;28;20959;-51
2021/12/22 05:47:34;;;;;;;16.07;11.03;;;1.20;54.10;;;;;;5091291;28;20414;-53
2021/12/22 05:50:03;;;;;;;12.90;10.50;;;1.20;53.70;;;;;;5089503;28;20429;-51
2021/12/22 05:52:28;;;;;;;19.03;10.83;;;1.30;53.80;;;;;;5091304;28;20772;-53
2021/12/22 05:54:54;;;;;;;13.80;9.67;;;1.30;53.60;;;;;;5090555;28;20520;-52
2021/12/22 05:57:20;;;;;;;16.50;11.70;;;1.30;53.50;;;;;;5091318;28;20198;-51
2021/12/22 05:59:45;;;;;;;12.47;10.00;;;1.20;53.20;;;;;;5091112;28;20191;-52
2021/12/22 06:02:11;;;;;;;13.97;10.37;;;1.20;53.40;;;;;;5091452;28;20194;-53
2021/12/22 06:04:36;;;;;;;15.40;10.37;;;1.30;53.60;;;;;;5091079;28;20641;-51
2021/12/22 06:07:02;;;;;;;14.77;9.70;;;1.40;54.10;;;;;;5090593;28;20202;-54
2021/12/22 06:09:28;;;;;;;19.17;10.40;;;1.50;53.30;;;;;;5091148;28;20183;-53
2021/12/22 06:11:53;;;;;;;16.10;10.20;;;1.40;53.10;;;;;;5090571;28;20191;-54
2021/12/22 06:14:19;;;;;;;16.67;10.43;;;1.40;53.00;;;;;;5090860;28;20244;-52
2021/12/22 06:16:44;;;;;;;21.37;14.23;;;1.50;52.80;;;;;;5088802;28;20187;-51
2021/12/22 06:19:12;;;;;;;20.77;14.30;;;1.60;52.70;;;;;;5091384;28;20626;-54
2021/12/22 06:21:38;;;;;;;15.93;10.43;;;1.60;52.60;;;;;;5090497;28;20203;-52
2021/12/22 06:24:04;;;;;;;15.47;10.20;;;1.40;52.60;;;;;;5090364;28;20472;-53
2021/12/22 06:26:30;;;;;;;18.03;11.43;;;1.40;52.70;;;;;;5090533;28;20421;-53
2021/12/22 06:28:56;;;;;;;14.03;9.10;;;1.40;52.80;;;;;;5091020;28;20761;-51
2021/12/22 06:31:21;;;;;;;17.20;11.07;;;1.30;52.90;;;;;;5090379;28;20191;-53
2021/12/22 06:33:47;;;;;;;18.50;10.70;;;1.30;53.00;;;;;;5090534;28;20222;-52
2021/12/22 06:36:12;;;;;;;16.33;10.50;;;1.30;52.90;;;;;;5090201;28;20187;-52
2021/12/22 06:38:39;;;;;;;12.83;10.53;;;1.30;52.80;;;;;;5090793;28;20195;-54
2021/12/22 06:41:05;;;;;;;14.70;9.80;;;1.40;52.70;;;;;;5090295;28;20191;-51
2021/12/22 06:43:31;;;;;;;17.10;11.83;;;1.40;52.30;;;;;;5089614;28;20865;-51
2021/12/22 06:45:57;;;;;;;15.27;11.33;;;1.40;52.20;;;;;;5089832;28;20489;-54
2021/12/22 06:48:22;;;;;;;16.70;10.77;;;1.40;52.30;;;;;;5094621;28;20195;-51
2021/12/22 06:50:48;;;;;;;12.30;9.50;;;1.40;52.30;;;;;;5094243;28;20424;-53
2021/12/22 06:53:14;;;;;;;13.10;10.20;;;1.40;52.20;;;;;;5095056;28;20183;-54
2021/12/22 06:55:39;;;;;;;16.50;10.80;;;1.30;52.00;;;;;;5094177;28;20196;-54
2021/12/22 06:58:05;;;;;;;14.00;9.70;;;1.10;52.50;;;;;;5094595;28;20565;-51
2021/12/22 07:00:31;;;;;;;17.17;10.53;;;1.10;52.70;;;;;;5094341;28;20576;-51
2021/12/22 07:02:58;;;;;;;16.60;11.53;;;1.20;52.60;;;;;;5094719;28;20225;-52
2021/12/22 07:05:24;;;;;;;17.80;10.43;;;1.20;52.50;;;;;;5092300;28;20492;-52
2021/12/22 07:07:49;;;;;;;16.20;12.37;;;1.30;52.40;;;;;;5094809;28;20474;-52
2021/12/22 07:10:16;;;;;;;17.20;11.67;;;1.30;52.40;;;;;;5092587;28;20275;-53
2021/12/22 07:12:46;;;;;;;24.07;12.33;;;1.40;52.30;;;;;;5094824;28;20436;-51
2021/12/22 07:15:14;;;;;;;16.70;11.43;;;1.40;52.30;;;;;;5093806;28;20425;-53
2021/12/22 07:17:45;;;;;;;15.10;11.60;;;1.30;52.10;;;;;;5094544;28;20486;-53
2021/12/22 07:20:12;;;;;;;19.63;11.70;;;1.30;52.10;;;;;;5093829;28;20464;-52
2021/12/22 07:22:38;;;;;;;17.20;11.50;;;1.30;52.40;;;;;;5094451;28;20490;-51
2021/12/22 07:25:06;;;;;;;17.23;12.90;;;1.20;52.60;;;;;;5093203;28;20485;-51
2021/12/22 07:27:32;;;;;;;20.00;13.00;;;1.10;52.70;;;;;;5094171;28;20433;-53
2021/12/22 07:29:58;;;;;;;24.57;12.70;;;1.20;52.90;;;;;;5092084;28;20429;-51
2021/12/22 07:32:23;;;;;;;22.43;13.40;;;1.30;52.90;;;;;;5094223;28;20440;-54
2021/12/22 07:35:28;;;;;;;26.60;17.60;;;1.70;53.10;;;;;;5092636;28;20199;-53
2021/12/22 07:38:22;;;;;;;20.00;12.70;;;2.30;51.90;;;;;;5091375;28;20558;-54
2021/12/22 07:40:48;;;;;;;29.93;23.30;;;3.00;50.40;;;;;;5093408;28;20421;-51
2021/12/22 07:43:14;;;;;;;26.87;16.50;;;3.70;48.70;;;;;;5094270;28;20559;-54
2021/12/22 07:45:39;;;;;;;22.20;13.20;;;4.40;47.00;;;;;;5093186;28;20226;-54
2021/12/22 07:48:05;;;;;;;17.60;12.93;;;5.10;45.20;;;;;;5093779;28;20276;-53
2021/12/22 07:50:31;;;;;;;13.90;11.60;;;5.80;43.40;;;;;;5093241;28;20195;-52
2021/12/22 07:52:56;;;;;;;18.80;11.70;;;6.30;42.20;;;;;;5093927;28;20203;-51
2021/12/22 07:55:22;;;;;;;18.77;13.57;;;6.80;41.90;;;;;;5092837;28;20188;-55
2021/12/22 07:57:48;;;;;;;16.57;12.13;;;7.10;40.50;;;;;;5093475;28;20202;-54
2021/12/22 08:00:14;;;;;;;16.63;13.37;;;7.20;40.00;;;;;;5092573;28;20658;-55
2021/12/22 08:02:40;;;;;;;16.63;12.70;;;6.90;40.10;;;;;;5092266;28;20268;-52
2021/12/22 08:05:05;;;;;;;17.77;12.57;;;6.20;41.20;;;;;;5092333;28;20572;-54
2021/12/22 08:07:31;;;;;;;17.57;13.50;;;5.60;42.50;;;;;;5093505;28;20199;-54
2021/12/22 08:09:58;;;;;;;18.87;12.97;;;5.10;43.70;;;;;;5092820;28;20191;-51
2021/12/22 08:12:23;;;;;;;18.77;12.33;;;4.40;44.60;;;;;;5093645;28;20202;-54
2021/12/22 08:14:49;;;;;;;16.67;13.03;;;3.90;46.20;;;;;;5092305;28;20418;-54
2021/12/22 08:17:15;;;;;;;20.83;14.30;;;3.40;47.60;;;;;;5093141;28;20532;-54
2021/12/22 08:19:41;;;;;;;20.10;13.40;;;3.10;48.80;;;;;;5092925;28;20238;-55
2021/12/22 08:22:07;;;;;;;20.87;13.73;;;2.60;49.90;;;;;;5092885;28;20237;-54
2021/12/22 08:24:33;;;;;;;21.60;14.10;;;2.60;50.60;;;;;;5092674;28;20516;-52
2021/12/22 08:26:59;;;;;;;27.50;15.43;;;2.60;50.80;;;;;;5092537;28;20202;-53
2021/12/22 08:29:24;;;;;;;22.67;14.90;;;2.60;50.80;;;;;;5091457;28;20209;-51
2021/12/22 08:31:50;;;;;;;25.73;15.20;;;2.60;51.00;;;;;;5092322;28;20482;-52
2021/12/22 08:34:23;;;;;;;22.47;13.50;;;2.70;51.10;;;;;;5092673;28;20681;-53
2021/12/22 08:39:33;;;;;;;23.53;14.00;;;2.80;51.20;;;;;;5093031;28;20474;-55
2021/12/22 08:41:59;;;;;;;22.90;13.60;;;2.80;51.40;;;;;;5092026;28;20421;-51
2021/12/22 08:44:26;;;;;;;18.20;13.47;;;2.80;51.40;;;;;;5092182;28;20221;-52
2021/12/22 08:46:52;;;;;;;21.97;14.00;;;2.90;51.60;;;;;;5092133;28;20230;-52
2021/12/22 08:49:19;;;;;;;19.60;14.00;;;2.90;51.60;;;;;;5092354;28;20478;-51
2021/12/22 08:51:46;;;;;;;21.80;14.97;;;2.90;51.90;;;;;;5092044;28;20909;-54
2021/12/22 08:54:12;;;;;;;19.80;14.37;;;2.80;52.40;;;;;;5092255;28;20433;-52
2021/12/22 08:56:38;;;;;;;22.10;15.20;;;2.70;53.00;;;;;;5090450;28;20505;-51
2021/12/22 08:59:05;;;;;;;22.13;15.33;;;2.70;53.50;;;;;;5090827;28;20479;-52
2021/12/22 09:01:31;;;;;;;20.57;14.77;;;2.90;53.50;;;;;;5092181;28;20924;-55
2021/12/22 09:03:57;;;;;;;20.27;14.40;;;3.00;53.60;;;;;;5091727;28;20425;-52
2021/12/22 09:06:22;;;;;;;23.83;14.87;;;2.90;54.00;;;;;;5091848;28;20199;-55
2021/12/22 09:08:48;;;;;;;20.40;14.27;;;2.70;54.90;;;;;;5091994;28;20197;-56
2021/12/22 09:11:14;;;;;;;24.13;16.00;;;2.80;55.60;;;;;;5090720;28;20643;-55
2021/12/22 09:13:40;;;;;;;21.67;14.80;;;2.80;55.10;;;;;;5092177;28;20606;-54
2021/12/22 09:16:08;;;;;;;24.83;15.87;;;2.90;55.40;;;;;;5091717;28;20470;-53
2021/12/22 09:18:34;;;;;;;19.40;14.53;;;2.80;56.10;;;;;;5091951;28;20833;-53
2021/12/22 09:20:59;;;;;;;21.23;14.90;;;2.80;56.00;;;;;;5091277;28;20882;-54
2021/12/22 09:23:25;;;;;;;19.90;14.20;;;2.70;56.40;;;;;;5089938;28;20490;-54
2021/12/22 09:25:51;;;;;;;18.83;14.40;;;2.90;57.30;;;;;;5091365;28;20226;-55
2021/12/22 09:28:16;;;;;;;21.07;13.43;;;3.10;56.90;;;;;;5091611;28;20202;-54
2021/12/22 09:30:44;;;;;;;19.93;14.27;;;3.50;56.50;;;;;;5091471;28;20641;-56
2021/12/22 09:33:13;;;;;;;19.63;14.13;;;3.70;55.60;;;;;;5092031;28;20195;-53
2021/12/22 09:35:40;;;;;;;23.00;14.27;;;3.90;55.10;;;;;;5090805;28;20433;-55
2021/12/22 09:38:07;;;;;;;22.43;13.30;;;4.10;54.40;;;;;;5091411;28;20425;-55
2021/12/22 09:40:33;;;;;;;21.30;14.87;;;3.90;54.70;;;;;;5091210;28;20425;-54
2021/12/22 09:42:59;;;;;;;22.90;14.10;;;4.20;55.00;;;;;;5091681;28;20433;-53
2021/12/22 09:45:26;;;;;;;18.37;13.67;;;4.50;53.80;;;;;;5090841;28;20951;-55
2021/12/22 09:50:48;;;;;;;19.47;15.10;;;5.30;52.20;;;;;;5089513;28;20437;-55
2021/12/22 09:53:16;;;;;;;24.30;16.30;;;5.80;50.90;;;;;;5091606;28;20797;-52
2021/12/22 09:55:42;;;;;;;20.90;14.30;;;6.40;50.00;;;;;;5090716;28;20763;-55
2021/12/22 09:58:09;;;;;;;16.20;14.10;;;6.60;48.70;;;;;;5091639;28;20429;-55
2021/12/22 10:00:36;;;;;;;18.80;13.53;;;6.60;48.70;;;;;;5090731;28;20203;-54
2021/12/22 10:03:04;;;;;;;15.43;13.53;;;6.90;48.50;;;;;;5091279;28;20551;-52
2021/12/22 10:05:30;;;;;;;18.80;14.27;;;7.10;47.70;;;;;;5090067;28;21040;-55
2021/12/22 10:08:11;;;;;;;18.60;13.60;;;7.40;47.10;;;;;;5091284;28;20425;-52
2021/12/22 10:10:39;;;;;;;17.27;13.70;;;7.80;46.30;;;;;;5090666;28;20234;-54
2021/12/22 10:13:10;;;;;;;19.13;14.20;;;7.90;45.70;;;;;;5091230;28;20971;-55
2021/12/22 10:15:37;;;;;;;21.70;13.90;;;7.90;45.10;;;;;;5088663;28;20435;-56
2021/12/22 10:18:14;;;;;;;19.50;13.67;;;8.00;45.70;;;;;;5091095;28;20432;-53
2021/12/22 10:20:41;;;;;;;17.83;14.77;;;8.30;45.50;;;;;;5090784;28;20459;-52
2021/12/22 10:23:26;;;;;;;17.67;12.80;;;8.50;45.20;;;;;;5090873;28;20809;-54
2021/12/22 10:25:56;;;;;;;23.47;14.33;;;8.30;44.80;;;;;;5090575;28;20485;-55
2021/12/22 10:28:24;;;;;;;18.50;14.17;;;8.60;44.60;;;;;;5090738;28;20925;-55
2021/12/22 10:30:55;;;;;;;19.53;13.33;;;8.80;44.30;;;;;;5090493;28;20447;-55
2021/12/22 10:33:25;;;;;;;19.43;13.87;;;9.10;43.60;;;;;;5090556;28;20951;-55
2021/12/22 10:36:00;;;;;;;17.43;13.40;;;9.20;43.00;;;;;;5090179;28;20445;-52
2021/12/22 10:38:28;;;;;;;19.00;13.47;;;9.30;42.70;;;;;;5090620;28;20580;-53
2021/12/22 10:40:56;;;;;;;18.10;13.00;;;9.40;42.00;;;;;;5090224;28;20849;-52
2021/12/22 10:43:25;;;;;;;16.77;12.07;;;9.50;41.90;;;;;;5088881;28;20425;-55
2021/12/22 10:45:59;;;;;;;16.93;12.87;;;9.50;41.40;;;;;;5090115;28;20968;-54
2021/12/22 10:51:19;;;;;;;16.47;13.47;;;9.20;41.40;;;;;;5090519;28;20523;-55
2021/12/22 10:53:48;;;;;;;16.10;12.40;;;9.50;41.00;;;;;;5090330;28;20452;-54
2021/12/22 10:56:35;;;;;;;14.67;11.73;;;9.70;40.80;;;;;;5090262;28;20429;-52
2021/12/22 10:59:10;;;;;;;16.23;12.97;;;10.00;39.20;;;;;;5090380;28;21287;-54
2021/12/22 11:01:38;;;;;;;17.50;14.37;;;10.20;38.90;;;;;;5090299;28;20429;-54
2021/12/22 11:04:14;;;;;;;16.83;14.03;;;10.50;38.50;;;;;;5090142;28;20445;-55
2021/12/22 11:06:40;;;;;;;15.23;13.47;;;10.50;37.60;;;;;;5089926;28;20444;-54
2021/12/22 11:09:13;;;;;;;18.63;14.07;;;10.70;37.20;;;;;;5089107;28;20447;-52
2021/12/22 11:11:44;;;;;;;17.47;14.57;;;10.70;37.50;;;;;;5090055;28;20451;-54
2021/12/22 11:14:16;;;;;;;14.60;13.00;;;10.90;37.00;;;;;;5090324;28;20437;-52
2021/12/22 11:16:56;;;;;;;14.87;12.37;;;10.90;37.10;;;;;;5089875;28;20437;-56
2021/12/22 11:19:23;;;;;;;17.60;12.57;;;10.80;36.70;;;;;;5090653;28;20473;-55
2021/12/22 11:22:13;;;;;;;18.90;13.03;;;10.60;37.20;;;;;;5090048;28;20433;-52
2021/12/22 11:24:43;;;;;;;21.73;14.80;;;10.50;37.60;;;;;;5089946;28;20860;-53
2021/12/22 11:27:10;;;;;;;20.67;14.30;;;10.40;37.80;;;;;;5090884;28;20442;-53
2021/12/22 11:29:38;;;;;;;17.97;14.10;;;10.50;37.80;;;;;;5090315;28;20425;-54
2021/12/22 11:32:05;;;;;;;21.57;14.87;;;10.30;38.10;;;;;;5089974;28;20498;-55
2021/12/22 11:34:35;;;;;;;19.63;15.77;;;9.40;40.20;;;;;;5091923;28;20453;-56
2021/12/22 11:37:04;;;;;;;17.10;12.97;;;9.30;41.30;;;;;;5092064;28;20486;-54
2021/12/22 11:39:30;;;;;;;18.77;14.23;;;9.40;41.70;;;;;;5093874;28;20428;-53
2021/12/22 11:42:02;;;;;;;17.70;13.13;;;9.40;42.00;;;;;;5093681;28;20428;-52
2021/12/22 11:44:29;;;;;;;18.80;14.20;;;9.60;41.50;;;;;;5093395;28;20827;-54
2021/12/22 11:47:01;;;;;;;19.00;14.77;;;9.70;41.20;;;;;;5093243;28;20443;-52
2021/12/22 11:49:29;;;;;;;19.13;14.83;;;9.50;42.00;;;;;;5093712;28;20438;-54
2021/12/22 11:51:57;;;;;;;17.47;13.63;;;9.30;42.80;;;;;;5093348;28;20441;-54
2021/12/22 11:54:27;;;;;;;21.10;14.20;;;9.40;43.20;;;;;;5093493;28;20430;-55
2021/12/22 11:56:57;;;;;;;16.53;13.30;;;9.30;43.00;;;;;;5092936;28;20979;-55
2021/12/22 11:59:25;;;;;;;18.40;13.03;;;9.40;42.50;;;;;;5093731;28;20421;-54
2021/12/22 12:02:15;;;;;;;17.03;13.87;;;9.40;42.40;;;;;;5091331;28;20433;-55
2021/12/22 12:04:41;;;;;;;17.73;14.27;;;9.50;42.70;;;;;;5092959;28;21164;-52
2021/12/22 12:07:07;;;;;;;19.10;13.90;;;9.60;42.50;;;;;;5093318;28;20425;-55
2021/12/22 12:09:33;;;;;;;18.90;14.63;;;9.60;42.20;;;;;;5093342;28;20422;-52
2021/12/22 12:12:04;;;;;;;17.50;13.53;;;9.60;42.00;;;;;;5092765;28;20274;-55
2021/12/22 12:23:22;;;;;;;18.10;14.07;;;9.80;41.90;;;;;;5093254;28;20873;-56
2021/12/22 12:25:48;;;;;;;21.80;17.60;;;9.70;41.70;;;;;;5092572;28;20534;-53
2021/12/22 12:28:16;;;;;;;18.13;15.57;;;9.80;42.00;;;;;;5091308;28;20417;-55
2021/12/22 12:30:49;;;;;;;18.30;14.03;;;9.90;42.00;;;;;;5092639;28;20197;-56
2021/12/22 12:33:24;;;;;;;18.70;12.37;;;9.90;41.90;;;;;;5092693;28;20441;-54
2021/12/22 12:36:04;;;;;;;17.43;13.90;;;9.60;41.70;;;;;;5092224;28;20537;-55
2021/12/22 12:38:52;;;;;;;18.40;12.93;;;9.70;41.80;;;;;;5092787;28;20535;-56
2021/12/22 12:41:19;;;;;;;15.70;12.60;;;9.90;42.10;;;;;;5092048;28;20441;-56
2021/12/22 12:44:00;;;;;;;17.40;12.87;;;9.70;41.80;;;;;;5092375;28;20441;-52
2021/12/22 12:46:39;;;;;;;18.03;12.20;;;10.00;40.90;;;;;;5091989;28;20505;-55
2021/12/22 12:49:07;;;;;;;15.43;12.20;;;9.90;41.40;;;;;;5092295;28;20429;-56
2021/12/22 12:51:40;;;;;;;16.07;12.63;;;9.70;41.40;;;;;;5092092;28;20456;-53
2021/12/22 12:54:07;;;;;;;15.43;12.17;;;9.80;41.50;;;;;;5091960;28;20531;-53
2021/12/22 12:56:36;;;;;;;14.97;12.80;;;9.60;41.50;;;;;;5090323;28;20453;-54
2021/12/22 12:59:16;;;;;;;19.53;13.00;;;9.40;41.80;;;;;;5092119;28;20436;-55
2021/12/22 13:01:45;;;;;;;18.20;13.03;;;9.10;42.60;;;;;;5092005;28;20436;-54
2021/12/22 13:04:23;;;;;;;15.83;12.10;;;9.00;42.90;;;;;;5092120;28;20490;-52
2021/12/22 13:07:02;;;;;;;15.30;12.10;;;8.80;43.10;;;;;;5091776;28;20537;-55
2021/12/22 13:09:29;;;;;;;16.80;12.80;;;8.80;43.20;;;;;;5092011;28;20433;-53
2021/12/22 13:12:11;;;;;;;16.00;12.37;;;9.30;42.90;;;;;;5091849;28;20483;-55
2021/12/22 13:17:27;;;;;;;17.73;12.10;;;9.70;41.90;;;;;;5092237;28;20467;-53
2021/12/22 13:19:55;;;;;;;14.30;11.70;;;9.90;41.10;;;;;;5091232;28;20556;-52
2021/12/22 13:22:29;;;;;;;19.57;12.70;;;9.90;40.80;;;;;;5090588;28;20453;-52